createdAt,value
2019-02-22T00:02:40.692Z,16
2019-02-22T00:06:10.696Z,13.23
2019-02-22T00:09:49.092Z,13.79
2019-02-22T00:13:21.049Z,13.05
2019-02-22T00:16:51.103Z,15.68
2019-02-22T00:20:21.174Z,14.99
2019-02-22T00:23:51.276Z,15.11
2019-02-22T00:27:21.418Z,15.65
2019-02-22T00:30:51.460Z,14.36
2019-02-22T00:34:21.735Z,13.81
2019-02-22T00:37:51.905Z,13.41
2019-02-22T00:41:21.967Z,12.75
2019-02-22T00:44:52.119Z,12.85
2019-02-22T00:48:22.131Z,12.55
2019-02-22T00:51:52.223Z,12.81
2019-02-22T00:55:22.500Z,13.24
2019-02-22T00:58:52.521Z,15.31
2019-02-22T01:02:22.550Z,14.62
2019-02-22T01:05:52.574Z,14.64
2019-02-22T01:09:22.725Z,13.21
2019-02-22T01:12:52.799Z,12.24
2019-02-22T01:16:23.889Z,15.35
2019-02-22T01:19:53.914Z,18
2019-02-22T01:23:23.987Z,14.83
2019-02-22T01:26:54.026Z,16.73
2019-02-22T01:30:24.068Z,16.55
2019-02-22T01:33:54.337Z,15.79
2019-02-22T01:37:24.423Z,15.83
2019-02-22T01:40:54.515Z,18.23
2019-02-22T01:44:24.597Z,15.6
2019-02-22T01:47:54.624Z,14.51
2019-02-22T01:51:24.678Z,13.62
2019-02-22T01:54:54.685Z,16.32
2019-02-22T01:58:24.799Z,14.75
2019-02-22T02:00:16.200Z,15.79
2019-02-22T02:03:46.259Z,14.8
2019-02-22T02:07:16.291Z,13.74
2019-02-22T02:10:53.926Z,14.49
2019-02-22T02:14:24.566Z,11.14
2019-02-22T02:17:55.747Z,7.94
2019-02-22T02:21:25.880Z,15.51
2019-02-22T02:24:55.982Z,15.89
2019-02-22T02:28:26.144Z,11.74
2019-02-22T02:31:56.167Z,16.46
2019-02-22T02:35:26.169Z,16
2019-02-22T02:38:56.254Z,14.25
2019-02-22T02:42:26.373Z,17.4
2019-02-22T02:45:56.415Z,16.4
2019-02-22T02:49:26.462Z,14.47
2019-02-22T02:52:56.490Z,6.64
2019-02-22T02:56:26.592Z,15.54
2019-02-22T02:59:56.755Z,16.29
2019-02-22T03:03:26.727Z,17.18
2019-02-22T03:07:05.698Z,15.91
2019-02-22T03:10:35.712Z,16.52
2019-02-22T03:14:05.843Z,17.38
2019-02-22T03:17:35.965Z,17.2
2019-02-22T03:21:07.058Z,17.26
2019-02-22T03:24:37.310Z,16.19
2019-02-22T03:28:07.459Z,10.07
2019-02-22T03:31:37.439Z,14.94
2019-02-22T03:35:07.526Z,18.89
2019-02-22T03:38:37.589Z,19.27
2019-02-22T03:42:07.772Z,7.99
2019-02-22T03:45:37.933Z,9.2
2019-02-22T03:49:08.099Z,8.1
2019-02-22T03:52:43.425Z,12.2
2019-02-22T03:56:13.580Z,16.41
2019-02-22T03:59:43.623Z,16.61
2019-02-22T04:00:16.222Z,14.62
2019-02-22T04:03:46.424Z,16.88
2019-02-22T04:07:16.408Z,17.48
2019-02-22T04:10:46.471Z,3.19
2019-02-22T04:14:16.514Z,16.15
2019-02-22T04:17:46.553Z,13.85
2019-02-22T04:21:17.506Z,15.86
2019-02-22T04:24:47.608Z,15.34
2019-02-22T04:28:17.630Z,16.93
2019-02-22T04:31:47.691Z,14.15
2019-02-22T04:35:17.784Z,13.1
2019-02-22T04:38:47.836Z,14.45
2019-02-22T04:42:17.916Z,15.75
2019-02-22T04:45:48.011Z,15.26
2019-02-22T04:49:18.054Z,15.89
2019-02-22T04:52:48.205Z,15.71
2019-02-22T04:56:18.218Z,14.31
2019-02-22T04:59:48.229Z,15.34
2019-02-22T05:03:18.326Z,15.36
2019-02-22T05:06:48.375Z,11.71
2019-02-22T05:10:18.447Z,12.15
2019-02-22T05:13:48.638Z,15.3
2019-02-22T05:17:18.642Z,15
2019-02-22T05:20:48.702Z,15.98
2019-02-22T05:24:19.746Z,15.09
2019-02-22T05:27:49.980Z,9.3
2019-02-22T05:31:20.065Z,12
2019-02-22T05:34:50.141Z,14.84
2019-02-22T05:38:20.094Z,15.07
2019-02-22T05:41:50.177Z,14.7
2019-02-22T05:45:20.218Z,8.36
2019-02-22T05:48:50.281Z,17.7
2019-02-22T05:52:20.263Z,14.96
2019-02-22T05:55:50.245Z,13.79
2019-02-22T05:59:20.278Z,14.34
2019-02-22T06:00:17.201Z,16.94
2019-02-22T06:03:47.540Z,13.81
2019-02-22T06:07:17.687Z,9.56
2019-02-22T06:10:47.714Z,6.84
2019-02-22T06:14:17.746Z,13.92
2019-02-22T06:17:48.101Z,16.43
2019-02-22T06:21:18.081Z,11
2019-02-22T06:24:48.390Z,12.55
2019-02-22T06:28:18.508Z,13.96
2019-02-22T06:31:48.574Z,12.27
2019-02-22T06:35:18.711Z,14.75
2019-02-22T06:38:48.716Z,16.94
2019-02-22T06:42:18.635Z,15.21
2019-02-22T06:45:48.721Z,15.2
2019-02-22T06:49:18.841Z,14.82
2019-02-22T06:52:48.901Z,14.72
2019-02-22T06:56:18.924Z,14.29
2019-02-22T06:59:49.005Z,15.32
2019-02-22T07:03:19.085Z,11.12
2019-02-22T07:06:49.190Z,13.46
2019-02-22T07:10:19.278Z,16.64
2019-02-22T07:13:49.268Z,16.79
2019-02-22T07:17:19.317Z,16.3
2019-02-22T07:20:49.319Z,14.97
2019-02-22T07:24:19.422Z,14.36
2019-02-22T07:27:50.606Z,15.78
2019-02-22T07:31:20.746Z,14.88
2019-02-22T07:34:50.919Z,14.55
2019-02-22T07:38:20.958Z,14.72
2019-02-22T07:41:50.994Z,15.6
2019-02-22T07:45:21.136Z,16.11
2019-02-22T07:48:51.240Z,14.05
2019-02-22T07:52:21.340Z,15.76
2019-02-22T07:55:51.423Z,15.03
2019-02-22T07:59:21.446Z,16.75
2019-02-22T08:00:16.727Z,18.82
2019-02-22T08:03:47.150Z,15.88
2019-02-22T08:07:17.441Z,16.57
2019-02-22T08:10:47.569Z,19.06
2019-02-22T08:14:17.652Z,16.9
2019-02-22T08:17:47.818Z,16.35
2019-02-22T08:21:17.839Z,10.36
2019-02-22T08:24:47.984Z,17.02
2019-02-22T08:28:19.217Z,17.61
2019-02-22T08:31:49.326Z,19.97
2019-02-22T08:35:19.422Z,18.27
2019-02-22T08:38:49.413Z,18.39
2019-02-22T08:42:19.494Z,19.1
2019-02-22T08:45:49.611Z,17.69
2019-02-22T08:49:19.639Z,18.92
2019-02-22T08:52:49.653Z,19.68
2019-02-22T08:56:19.645Z,17.56
2019-02-22T08:59:49.758Z,19.71
2019-02-22T09:03:19.745Z,18.54
2019-02-22T09:06:52.342Z,19.38
2019-02-22T09:10:22.554Z,23.04
2019-02-22T09:13:52.713Z,20.35
2019-02-22T09:17:22.969Z,19.85
2019-02-22T09:20:53.095Z,20.61
2019-02-22T09:24:23.225Z,20.8
2019-02-22T09:27:53.327Z,19.98
2019-02-22T09:31:23.469Z,19.77
2019-02-22T09:34:53.569Z,20.7
2019-02-22T09:38:23.718Z,23.5
2019-02-22T09:41:53.777Z,21.81
2019-02-22T09:45:24.688Z,21.98
2019-02-22T09:48:54.922Z,21.06
2019-02-22T09:52:24.995Z,20.46
2019-02-22T09:55:55.307Z,24.79
2019-02-22T09:59:25.319Z,21.42
2019-02-22T10:00:16.970Z,25.66
2019-02-22T10:03:47.073Z,22.55
2019-02-22T10:07:17.185Z,21.29
2019-02-22T10:10:47.307Z,24.48
2019-02-22T10:14:17.420Z,20.98
2019-02-22T10:17:47.563Z,21.85
2019-02-22T10:21:17.615Z,20.36
2019-02-22T10:24:48.034Z,21.06
2019-02-22T10:28:18.297Z,20.16
2019-02-22T10:31:49.437Z,21.67
2019-02-22T10:35:19.397Z,24.08
2019-02-22T10:38:49.600Z,21.42
2019-02-22T10:42:19.630Z,22.59
2019-02-22T10:45:49.775Z,19.51
2019-02-22T10:49:19.856Z,21.14
2019-02-22T10:52:49.928Z,21.2
2019-02-22T10:56:20.030Z,22.45
2019-02-22T10:59:50.230Z,18.79
2019-02-22T11:03:20.295Z,21.4
2019-02-22T11:06:50.467Z,22.31
2019-02-22T11:10:20.510Z,20.64
2019-02-22T11:13:50.662Z,22.81
2019-02-22T11:17:20.659Z,22.65
2019-02-22T11:20:50.728Z,17.27
2019-02-22T11:24:20.954Z,21.5
2019-02-22T11:27:51.096Z,22.51
2019-02-22T11:31:21.160Z,18.79
2019-02-22T11:34:51.361Z,22.24
2019-02-22T11:38:21.510Z,23.54
2019-02-22T11:41:51.548Z,20.35
2019-02-22T11:45:21.707Z,10.32
2019-02-22T11:48:51.726Z,24.44
2019-02-22T11:52:21.817Z,22.76
2019-02-22T11:55:52.060Z,21.21
2019-02-22T11:59:22.050Z,20.12
2019-02-22T12:00:18.210Z,12.86
2019-02-22T12:03:48.343Z,10.97
2019-02-22T12:07:18.375Z,22.73
2019-02-22T12:10:48.560Z,10.18
2019-02-22T12:14:18.775Z,23.72
2019-02-22T12:17:48.866Z,14.66
2019-02-22T12:21:18.940Z,22.6
2019-02-22T12:24:48.988Z,22.55
2019-02-22T12:28:19.102Z,20.14
2019-02-22T12:31:49.321Z,22.21
2019-02-22T12:35:19.492Z,7.96
2019-02-22T12:38:49.633Z,20.33
2019-02-22T12:42:19.675Z,19.95
2019-02-22T12:45:49.797Z,11.57
2019-02-22T12:49:19.807Z,19.5
2019-02-22T12:52:49.908Z,14.62
2019-02-22T12:56:21.583Z,22.98
2019-02-22T13:00:02.472Z,23.96
2019-02-22T13:03:32.522Z,17.7
2019-02-22T13:07:02.653Z,23.98
2019-02-22T13:10:32.730Z,20.24
2019-02-22T13:14:02.994Z,23.1
2019-02-22T13:17:33.060Z,21.64
2019-02-22T13:21:03.229Z,23.62
2019-02-22T13:24:33.317Z,24.3
2019-02-22T13:28:03.417Z,19.46
2019-02-22T13:31:33.506Z,24.14
2019-02-22T13:35:04.045Z,23.35
2019-02-22T13:38:35.005Z,19.8
2019-02-22T13:42:05.120Z,22.21
2019-02-22T13:45:35.302Z,20.15
2019-02-22T13:49:05.817Z,21.08
2019-02-22T13:52:35.901Z,21.59
2019-02-22T13:56:06.064Z,21.35
2019-02-22T13:59:36.059Z,21.02
2019-02-22T14:00:16.484Z,24.01
2019-02-22T14:03:46.594Z,21.91
2019-02-22T14:07:16.628Z,15.2
2019-02-22T14:10:46.677Z,9.85
2019-02-22T14:14:16.826Z,20.16
2019-02-22T14:17:47.037Z,21.73
2019-02-22T14:21:17.053Z,22.15
2019-02-22T14:24:47.104Z,24.21
2019-02-22T14:28:17.073Z,20.41
2019-02-22T14:31:47.193Z,23.52
2019-02-22T14:35:17.335Z,17.04
2019-02-22T14:38:48.440Z,29.44
2019-02-22T14:42:18.697Z,18.06
2019-02-22T14:45:52.197Z,24.25
2019-02-22T14:49:23.165Z,24.12
2019-02-22T14:52:53.338Z,23.06
2019-02-22T14:56:23.541Z,17.31
2019-02-22T14:59:53.714Z,11.7
2019-02-22T15:03:23.769Z,14.18
2019-02-22T15:06:53.910Z,8.89
2019-02-22T15:10:23.903Z,9.81
2019-02-22T15:13:53.957Z,6.84
2019-02-22T15:17:30.760Z,8.03
2019-02-22T15:21:00.933Z,14.89
2019-02-22T15:24:32.969Z,13.8
2019-02-22T15:28:03.249Z,16.41
2019-02-22T15:31:36.086Z,5.98
2019-02-22T15:35:09.170Z,5.53
2019-02-22T15:38:39.138Z,9.78
2019-02-22T15:42:10.177Z,13.9
2019-02-22T15:45:40.313Z,13.66
2019-02-22T15:49:10.469Z,6.89
2019-02-22T15:52:40.613Z,14.74
2019-02-22T15:56:10.560Z,13.81
2019-02-22T15:59:40.717Z,10.24
2019-02-22T16:00:19.801Z,16.9
2019-02-22T16:03:54.135Z,15.68
2019-02-22T16:07:24.321Z,15.81
2019-02-22T16:10:54.500Z,4.53
2019-02-22T16:14:24.495Z,17.31
2019-02-22T16:17:54.602Z,13.86
2019-02-22T16:21:24.659Z,15.68
2019-02-22T16:24:54.756Z,16.73
2019-02-22T16:28:24.743Z,15.06
2019-02-22T16:31:54.850Z,4.45
2019-02-22T16:35:24.927Z,12.62
2019-02-22T16:38:55.078Z,13.65
2019-02-22T16:42:26.131Z,17.44
2019-02-22T16:45:56.148Z,17.89
2019-02-22T16:49:26.145Z,7.22
2019-02-22T16:52:56.233Z,15.89
2019-02-22T16:56:26.320Z,18.71
2019-02-22T16:59:56.366Z,11.47
2019-02-22T17:03:26.423Z,15.96
2019-02-22T17:06:56.490Z,13.25
2019-02-22T17:10:26.477Z,13.09
2019-02-22T17:13:56.551Z,8.15
2019-02-22T17:17:26.451Z,16.89
2019-02-22T17:20:56.528Z,13.79
2019-02-22T17:24:26.531Z,16.45
2019-02-22T17:27:56.574Z,11.84
2019-02-22T17:31:26.579Z,12.95
2019-02-22T17:34:56.644Z,12.06
2019-02-22T17:38:26.713Z,6.4
2019-02-22T17:41:56.890Z,6.54
2019-02-22T17:45:27.910Z,4.89
2019-02-22T17:48:57.974Z,2.01
2019-02-22T17:52:28.011Z,2.84
2019-02-22T17:55:58.097Z,2.12
2019-02-22T17:59:28.115Z,1.78
2019-02-22T18:00:17.829Z,3
2019-02-22T18:03:47.892Z,2.88
2019-02-22T18:07:17.889Z,3.23
2019-02-22T18:10:48.131Z,2.17
2019-02-22T18:14:18.292Z,2.16
2019-02-22T18:17:48.449Z,2.83
2019-02-22T18:21:18.566Z,2.5
2019-02-22T18:24:48.663Z,3.16
2019-02-22T18:28:18.774Z,2.39
2019-02-22T18:31:49.007Z,1.62
2019-02-22T18:35:18.990Z,1.98
2019-02-22T18:38:49.060Z,2.3
2019-02-22T18:42:19.037Z,1.81
2019-02-22T18:45:50.064Z,2.29
2019-02-22T18:49:20.110Z,0.61
2019-02-22T18:52:50.118Z,2.21
2019-02-22T18:56:20.139Z,2.54
2019-02-22T18:59:50.181Z,2.46
2019-02-22T19:03:20.189Z,2.01
2019-02-22T19:06:50.576Z,1.83
2019-02-22T19:10:20.702Z,2.91
2019-02-22T19:13:50.704Z,2.53
2019-02-22T19:17:30.036Z,1.61
2019-02-22T19:21:00.577Z,1.76
2019-02-22T19:24:38.931Z,4.65
2019-02-22T19:28:09.064Z,2.34
2019-02-22T19:31:39.035Z,1.8
2019-02-22T19:35:09.136Z,5.06
2019-02-22T19:38:39.261Z,3.34
2019-02-22T19:42:09.753Z,3.5
2019-02-22T19:43:42.667Z,5.55
2019-02-22T19:47:13.672Z,5.52
2019-02-22T19:50:43.580Z,4.31
2019-02-22T19:54:13.631Z,2.31
2019-02-22T19:57:54.854Z,3.72
2019-02-22T20:00:15.883Z,1.7
2019-02-22T20:03:45.890Z,5.3
2019-02-22T20:07:16.069Z,4.66
2019-02-22T20:10:46.046Z,2.45
2019-02-22T20:14:16.107Z,3.8
2019-02-22T20:17:54.301Z,5.44
2019-02-22T20:21:25.044Z,3.75
2019-02-22T20:24:55.054Z,4.64
2019-02-22T20:28:25.184Z,3.84
2019-02-22T20:31:55.173Z,3.84
2019-02-22T20:35:25.309Z,1.24
2019-02-22T20:38:55.409Z,4.05
2019-02-22T20:42:25.498Z,5.51
2019-02-22T20:45:55.603Z,2.1
2019-02-22T20:49:26.635Z,3.79
2019-02-22T20:52:56.634Z,2.56
2019-02-22T20:56:26.593Z,5.23
2019-02-22T20:59:56.571Z,2.92
2019-02-22T21:03:26.670Z,3.91
2019-02-22T21:06:56.639Z,6.45
2019-02-22T21:10:26.707Z,4.34
2019-02-22T21:13:56.725Z,5.82
2019-02-22T21:17:26.785Z,3.26
2019-02-22T21:20:56.832Z,5.21
2019-02-22T21:24:27.001Z,2.21
2019-02-22T21:27:56.985Z,4.03
2019-02-22T21:31:27.200Z,1.91
2019-02-22T21:34:57.397Z,2.95
2019-02-22T21:38:27.514Z,2.9
2019-02-22T21:41:57.571Z,2.25
2019-02-22T21:45:27.641Z,4.92
2019-02-22T21:48:57.620Z,2.51
2019-02-22T21:52:27.789Z,4.74
2019-02-22T21:55:57.838Z,2.84
2019-02-22T21:59:28.056Z,4.76
2019-02-22T22:00:16.646Z,3.58
2019-02-22T22:03:46.674Z,3.3
2019-02-22T22:07:16.802Z,5.41
2019-02-22T22:10:46.861Z,1.73
2019-02-22T22:14:17.009Z,1.91
2019-02-22T22:17:47.167Z,3.23
2019-02-22T22:21:17.196Z,2.06
2019-02-22T22:24:47.215Z,2.89
2019-02-22T22:28:17.474Z,4.22
2019-02-22T22:31:47.563Z,3.09
2019-02-22T22:35:17.779Z,3.91
2019-02-22T22:38:47.712Z,4.9
2019-02-22T22:42:17.839Z,3.38
2019-02-22T22:45:47.810Z,3.78
2019-02-22T22:49:17.955Z,3.41
2019-02-22T22:52:49.038Z,3.39
2019-02-22T22:56:19.016Z,4.53
2019-02-22T22:59:49.009Z,4.66
2019-02-22T23:03:19.390Z,3.76
2019-02-22T23:06:49.395Z,3.51
2019-02-22T23:10:19.727Z,4.26
2019-02-22T23:13:49.711Z,3.1
2019-02-22T23:17:19.801Z,4.15
2019-02-22T23:20:49.921Z,2.45
2019-02-22T23:24:20.026Z,3.24
2019-02-22T23:27:50.072Z,5.05
2019-02-22T23:31:20.142Z,4.19
2019-02-22T23:34:50.174Z,5.39
2019-02-22T23:38:20.265Z,2.5
2019-02-22T23:41:50.247Z,2.64
2019-02-22T23:45:20.429Z,3.8
2019-02-22T23:48:50.472Z,2.71
2019-02-22T23:52:20.495Z,2.41
2019-02-22T23:55:51.413Z,4.64
2019-02-22T23:59:21.426Z,3.43
